createdAt,value
2023-05-21T00:01:01.249Z,12.55
2023-05-21T00:02:05.005Z,17.33
2023-05-21T00:03:13.849Z,13.18
2023-05-21T00:04:15.927Z,14.43
2023-05-21T00:05:18.385Z,12.70
2023-05-21T00:06:20.906Z,12.75
2023-05-21T00:07:23.337Z,11.43
2023-05-21T00:08:25.230Z,12.95
2023-05-21T00:09:27.051Z,12.00
2023-05-21T00:10:28.930Z,12.50
2023-05-21T00:11:31.460Z,11.05
2023-05-21T00:12:33.483Z,12.80
2023-05-21T00:13:35.310Z,11.95
2023-05-21T00:14:37.210Z,12.52
2023-05-21T00:15:39.485Z,14.25
2023-05-21T00:16:41.501Z,11.73
2023-05-21T00:17:43.604Z,11.88
2023-05-21T00:18:45.925Z,12.10
2023-05-21T00:19:48.153Z,12.05
2023-05-21T00:20:49.937Z,12.73
2023-05-21T00:21:51.758Z,14.25
2023-05-21T00:22:53.660Z,12.80
2023-05-21T00:23:56.435Z,12.57
2023-05-21T00:24:58.390Z,12.38
2023-05-21T00:26:00.219Z,12.65
2023-05-21T00:27:02.065Z,11.48
2023-05-21T00:28:04.088Z,12.73
2023-05-21T00:29:05.885Z,11.35
2023-05-21T00:30:08.444Z,12.40
2023-05-21T00:31:10.385Z,12.68
2023-05-21T00:32:12.295Z,12.60
2023-05-21T00:33:14.733Z,11.88
2023-05-21T00:34:16.689Z,12.60
2023-05-21T00:35:18.753Z,13.20
2023-05-21T00:36:23.863Z,13.13
2023-05-21T00:37:25.751Z,12.30
2023-05-21T00:38:27.956Z,13.10
2023-05-21T00:39:29.821Z,12.45
2023-05-21T00:40:31.767Z,12.45
2023-05-21T00:41:35.412Z,12.25
2023-05-21T00:42:41.633Z,11.70
2023-05-21T00:43:44.614Z,12.50
2023-05-21T00:44:46.403Z,11.70
2023-05-21T00:45:48.280Z,11.32
2023-05-21T00:46:53.767Z,14.30
2023-05-21T00:47:56.081Z,13.13
2023-05-21T00:48:58.980Z,13.23
2023-05-21T00:50:03.687Z,16.63
2023-05-21T00:51:06.504Z,11.93
2023-05-21T00:52:08.545Z,13.05
2023-05-21T00:53:11.483Z,12.13
2023-05-21T00:54:13.323Z,12.68
2023-05-21T00:55:15.458Z,11.88
2023-05-21T00:56:17.675Z,12.60
2023-05-21T00:57:23.296Z,13.07
2023-05-21T00:58:25.687Z,13.13
2023-05-21T00:59:27.491Z,12.23
2023-05-21T01:00:29.570Z,12.70
2023-05-21T01:01:33.896Z,15.95
2023-05-21T01:02:37.335Z,12.85
2023-05-21T01:03:41.105Z,12.75
2023-05-21T01:04:43.314Z,13.50
2023-05-21T01:05:46.777Z,13.27
2023-05-21T01:06:48.617Z,13.80
2023-05-21T01:07:50.685Z,13.85
2023-05-21T01:08:52.571Z,13.13
2023-05-21T01:09:54.383Z,12.95
2023-05-21T01:10:57.564Z,14.98
2023-05-21T01:12:01.034Z,13.02
2023-05-21T01:13:03.225Z,14.45
2023-05-21T01:14:08.006Z,13.20
2023-05-21T01:15:10.970Z,13.10
2023-05-21T01:16:13.710Z,14.75
2023-05-21T01:17:16.369Z,12.65
2023-05-21T01:18:20.113Z,13.35
2023-05-21T01:19:24.437Z,12.88
2023-05-21T01:20:27.425Z,13.02
2023-05-21T01:21:30.389Z,13.02
2023-05-21T01:22:34.547Z,15.50
2023-05-21T01:23:36.474Z,12.77
2023-05-21T01:24:38.304Z,12.65
2023-05-21T01:25:42.324Z,13.13
2023-05-21T01:26:46.564Z,14.10
2023-05-21T01:27:48.626Z,14.90
2023-05-21T01:28:51.876Z,13.60
2023-05-21T01:29:53.873Z,13.30
2023-05-21T01:30:59.309Z,14.52
2023-05-21T01:32:07.087Z,13.00
2023-05-21T01:33:18.495Z,13.05
2023-05-21T01:34:24.109Z,18.00
2023-05-21T01:36:09.707Z,13.82
2023-05-21T01:37:36.663Z,13.98
2023-05-21T01:38:47.393Z,15.80
2023-05-21T01:39:57.413Z,13.93
2023-05-21T01:41:06.997Z,12.95
2023-05-21T01:42:10.838Z,13.57
2023-05-21T01:43:14.323Z,12.75
2023-05-21T01:44:18.929Z,14.05
2023-05-21T01:45:24.000Z,16.55
2023-05-21T01:46:30.827Z,14.68
2023-05-21T01:47:34.457Z,14.20
2023-05-21T01:48:36.711Z,14.00
2023-05-21T01:49:39.155Z,13.57
2023-05-21T01:50:43.611Z,17.77
2023-05-21T01:51:45.982Z,14.55
2023-05-21T01:52:53.646Z,13.43
2023-05-21T01:53:55.545Z,13.23
2023-05-21T01:54:57.804Z,12.63
2023-05-21T01:55:59.638Z,14.30
2023-05-21T01:57:01.706Z,15.52
2023-05-21T01:58:03.500Z,16.90
2023-05-21T01:59:05.937Z,15.18
2023-05-21T02:00:09.161Z,15.13
2023-05-21T02:01:11.976Z,13.60
2023-05-21T02:02:14.112Z,14.40
2023-05-21T02:03:16.552Z,15.48
2023-05-21T02:04:18.575Z,14.77
2023-05-21T02:05:20.424Z,13.95
2023-05-21T02:06:22.686Z,13.65
2023-05-21T02:07:24.664Z,13.75
2023-05-21T02:08:27.320Z,15.90
2023-05-21T02:09:29.255Z,13.50
2023-05-21T02:10:31.137Z,14.50
2023-05-21T02:11:33.108Z,14.07
2023-05-21T02:12:35.076Z,13.48
2023-05-21T02:13:42.072Z,14.93
2023-05-21T02:14:43.870Z,14.25
2023-05-21T02:15:45.756Z,14.57
2023-05-21T02:16:47.734Z,16.10
2023-05-21T02:17:51.479Z,14.48
2023-05-21T02:18:57.417Z,14.30
2023-05-21T02:20:08.536Z,16.52
2023-05-21T02:21:13.487Z,13.68
2023-05-21T02:22:15.461Z,13.57
2023-05-21T02:23:17.314Z,14.45
2023-05-21T02:24:19.311Z,16.80
2023-05-21T02:25:21.138Z,14.32
2023-05-21T02:26:23.163Z,14.85
2023-05-21T02:27:25.062Z,16.75
2023-05-21T02:28:27.284Z,14.45
2023-05-21T02:29:29.530Z,15.60
2023-05-21T02:30:31.372Z,14.93
2023-05-21T02:31:33.121Z,14.60
2023-05-21T02:32:35.861Z,13.32
2023-05-21T02:33:41.243Z,15.85
2023-05-21T02:34:45.177Z,15.38
2023-05-21T02:35:46.987Z,15.10
2023-05-21T02:36:52.236Z,14.15
2023-05-21T02:37:54.366Z,13.75
2023-05-21T02:38:57.769Z,14.80
2023-05-21T02:40:00.537Z,13.70
2023-05-21T02:41:02.322Z,15.27
2023-05-21T02:42:04.302Z,14.15
2023-05-21T02:43:06.467Z,15.65
2023-05-21T02:44:08.369Z,16.33
2023-05-21T02:45:11.924Z,15.18
2023-05-21T02:46:13.776Z,15.48
2023-05-21T02:47:15.627Z,15.40
2023-05-21T02:48:17.466Z,15.60
2023-05-21T02:49:19.426Z,14.10
2023-05-21T02:50:22.800Z,13.55
2023-05-21T02:51:24.789Z,14.88
2023-05-21T02:52:26.703Z,15.07
2023-05-21T02:53:28.506Z,15.40
2023-05-21T02:54:30.492Z,15.55
2023-05-21T02:55:32.354Z,14.50
2023-05-21T02:56:34.151Z,14.65
2023-05-21T02:57:36.034Z,16.42
2023-05-21T02:58:38.006Z,16.15
2023-05-21T02:59:40.021Z,15.98
2023-05-21T03:00:41.967Z,14.48
2023-05-21T03:01:45.233Z,14.55
2023-05-21T03:02:47.337Z,16.35
2023-05-21T03:03:49.442Z,15.82
2023-05-21T03:04:51.823Z,15.52
2023-05-21T03:05:54.034Z,14.65
2023-05-21T03:06:57.156Z,14.40
2023-05-21T03:07:59.030Z,16.00
2023-05-21T03:09:00.797Z,14.88
2023-05-21T03:10:02.676Z,14.27
2023-05-21T03:11:04.976Z,14.82
2023-05-21T03:12:06.967Z,15.80
2023-05-21T03:13:10.005Z,15.02
2023-05-21T03:14:12.063Z,15.60
2023-05-21T03:15:16.648Z,13.52
2023-05-21T03:16:18.712Z,13.82
2023-05-21T03:17:20.756Z,15.75
2023-05-21T03:18:23.400Z,15.77
2023-05-21T03:19:25.412Z,16.92
2023-05-21T03:20:28.164Z,16.08
2023-05-21T03:21:30.325Z,16.80
2023-05-21T03:22:32.438Z,16.15
2023-05-21T03:23:34.948Z,16.33
2023-05-21T03:24:38.198Z,16.75
2023-05-21T03:25:40.281Z,19.05
2023-05-21T03:26:42.079Z,15.60
2023-05-21T03:27:44.014Z,16.17
2023-05-21T03:28:45.782Z,15.93
2023-05-21T03:29:47.674Z,14.77
2023-05-21T03:30:51.045Z,16.45
2023-05-21T03:31:54.052Z,16.48
2023-05-21T03:32:56.538Z,16.23
2023-05-21T03:33:58.369Z,16.08
2023-05-21T03:35:00.240Z,16.00
2023-05-21T03:36:02.018Z,16.65
2023-05-21T03:37:03.811Z,17.80
2023-05-21T03:38:05.814Z,14.43
2023-05-21T03:39:07.664Z,16.50
2023-05-21T03:40:09.974Z,16.00
2023-05-21T03:41:12.460Z,16.05
2023-05-21T03:42:14.401Z,16.08
2023-05-21T03:43:16.253Z,16.58
2023-05-21T03:44:18.443Z,15.23
2023-05-21T03:45:20.450Z,18.45
2023-05-21T03:46:22.321Z,17.80
2023-05-21T03:47:24.205Z,16.60
2023-05-21T03:48:26.091Z,15.52
2023-05-21T03:49:27.929Z,15.25
2023-05-21T03:50:30.871Z,15.90
2023-05-21T03:51:32.631Z,15.25
2023-05-21T03:52:34.605Z,16.80
2023-05-21T03:53:36.990Z,17.73
2023-05-21T03:54:38.837Z,16.05
2023-05-21T03:55:41.101Z,17.95
2023-05-21T03:56:42.886Z,17.35
2023-05-21T03:57:44.687Z,18.75
2023-05-21T03:58:46.889Z,16.77
2023-05-21T03:59:48.697Z,17.08
2023-05-21T04:00:51.014Z,16.33
2023-05-21T04:01:52.835Z,16.20
2023-05-21T04:02:54.740Z,19.27
2023-05-21T04:03:56.816Z,17.50
2023-05-21T04:04:58.854Z,18.85
2023-05-21T04:06:03.916Z,18.13
2023-05-21T04:07:05.678Z,15.95
2023-05-21T04:08:07.415Z,17.15
2023-05-21T04:09:09.198Z,17.40
2023-05-21T04:10:11.206Z,18.25
2023-05-21T04:11:13.041Z,18.02
2023-05-21T04:12:15.292Z,19.13
2023-05-21T04:13:17.202Z,17.55
2023-05-21T04:14:19.035Z,16.23
2023-05-21T04:15:21.188Z,16.55
2023-05-21T04:17:27.053Z,17.15
2023-05-21T04:18:28.940Z,17.70
2023-05-21T04:19:31.071Z,17.85
2023-05-21T04:20:32.960Z,17.35
2023-05-21T04:21:34.934Z,17.90
2023-05-21T04:22:36.735Z,17.23
2023-05-21T04:23:38.715Z,17.50
2023-05-21T04:24:40.541Z,18.48
2023-05-21T04:25:42.383Z,16.98
2023-05-21T04:26:44.608Z,16.75
2023-05-21T04:27:47.787Z,16.30
2023-05-21T04:28:50.452Z,17.35
2023-05-21T04:29:54.723Z,18.05
2023-05-21T04:30:56.766Z,18.60
2023-05-21T04:31:58.749Z,17.75
2023-05-21T04:33:00.727Z,18.55
2023-05-21T04:34:02.738Z,19.08
2023-05-21T04:35:04.964Z,18.27
2023-05-21T04:36:09.852Z,18.13
2023-05-21T04:37:12.087Z,18.42
2023-05-21T04:38:14.222Z,20.55
2023-05-21T04:39:17.101Z,17.75
2023-05-21T04:40:24.289Z,18.15
2023-05-21T04:41:26.068Z,23.35
2023-05-21T04:42:28.171Z,17.98
2023-05-21T04:43:30.438Z,18.08
2023-05-21T04:44:32.274Z,18.00
2023-05-21T04:45:34.249Z,18.20
2023-05-21T04:46:36.290Z,16.55
2023-05-21T04:47:38.712Z,18.45
2023-05-21T04:48:41.043Z,17.50
2023-05-21T04:49:42.908Z,17.90
2023-05-21T04:50:45.399Z,19.77
2023-05-21T04:51:47.388Z,19.10
2023-05-21T04:52:49.153Z,18.45
2023-05-21T04:53:50.988Z,19.13
2023-05-21T04:54:54.241Z,18.13
2023-05-21T04:55:56.104Z,17.60
2023-05-21T04:56:58.189Z,19.73
2023-05-21T04:57:59.966Z,17.23
2023-05-21T04:59:05.205Z,17.17
2023-05-21T05:00:08.709Z,17.08
2023-05-21T05:01:12.367Z,18.50
2023-05-21T05:02:14.202Z,17.92
2023-05-21T05:03:16.272Z,17.85
2023-05-21T05:04:18.245Z,17.52
2023-05-21T05:05:20.091Z,18.77
2023-05-21T05:06:22.313Z,18.27
2023-05-21T05:07:24.108Z,20.58
2023-05-21T05:08:25.889Z,18.95
2023-05-21T05:09:27.781Z,17.70
2023-05-21T05:10:29.754Z,17.08
2023-05-21T05:11:31.576Z,19.48
2023-05-21T05:12:33.408Z,19.45
2023-05-21T05:13:35.335Z,18.67
2023-05-21T05:14:37.245Z,19.48
2023-05-21T05:15:39.129Z,19.65
2023-05-21T05:16:41.062Z,19.42
2023-05-21T05:17:43.079Z,17.85
2023-05-21T05:18:44.893Z,17.52
2023-05-21T05:19:46.670Z,19.67
2023-05-21T05:20:48.390Z,18.75
2023-05-21T05:21:50.213Z,18.77
2023-05-21T05:22:52.010Z,17.80
2023-05-21T05:23:53.807Z,17.38
2023-05-21T05:24:55.624Z,18.80
2023-05-21T05:25:57.493Z,17.70
2023-05-21T05:26:59.319Z,18.05
2023-05-21T05:28:01.361Z,17.55
2023-05-21T05:29:03.506Z,18.48
2023-05-21T05:30:05.952Z,17.30
2023-05-21T05:31:08.038Z,18.33
2023-05-21T05:32:09.986Z,18.80
2023-05-21T05:33:12.006Z,18.70
2023-05-21T05:34:13.899Z,17.35
2023-05-21T05:35:16.012Z,18.58
2023-05-21T05:36:18.018Z,18.00
2023-05-21T05:37:19.817Z,17.95
2023-05-21T05:38:22.196Z,17.73
2023-05-21T05:39:24.011Z,17.67
2023-05-21T05:40:25.798Z,21.17
2023-05-21T05:41:27.660Z,18.67
2023-05-21T05:42:29.793Z,19.10
2023-05-21T05:43:31.636Z,18.10
2023-05-21T05:44:33.519Z,17.73
2023-05-21T05:45:35.445Z,19.02
2023-05-21T05:46:37.718Z,18.90
2023-05-21T05:47:39.751Z,17.75
2023-05-21T05:48:41.563Z,19.42
2023-05-21T05:49:43.734Z,19.02
2023-05-21T05:50:46.561Z,19.08
2023-05-21T05:51:48.496Z,17.95
2023-05-21T05:52:51.291Z,17.67
2023-05-21T05:53:53.101Z,20.05
2023-05-21T05:54:54.890Z,18.73
2023-05-21T05:55:56.679Z,18.00
2023-05-21T05:56:58.452Z,17.58
2023-05-21T05:58:00.335Z,19.02
2023-05-21T05:59:02.207Z,19.85
2023-05-21T06:00:05.277Z,19.60
2023-05-21T06:01:07.153Z,18.95
2023-05-21T06:02:09.005Z,21.35
2023-05-21T06:03:12.249Z,19.00
2023-05-21T06:04:14.193Z,19.63
2023-05-21T06:05:16.564Z,20.35
2023-05-21T06:06:18.642Z,19.50
2023-05-21T06:07:20.618Z,18.08
2023-05-21T06:08:23.330Z,18.08
2023-05-21T06:09:25.558Z,19.30
2023-05-21T06:10:27.373Z,20.15
2023-05-21T06:11:29.356Z,19.77
2023-05-21T06:12:31.121Z,20.15
2023-05-21T06:13:32.918Z,20.52
2023-05-21T06:14:34.838Z,18.92
2023-05-21T06:15:36.894Z,19.65
2023-05-21T06:16:39.160Z,22.88
2023-05-21T06:17:41.316Z,21.15
2023-05-21T06:18:43.224Z,19.73
2023-05-21T06:19:45.825Z,19.27
2023-05-21T06:20:47.686Z,19.52
2023-05-21T06:21:49.492Z,19.13
2023-05-21T06:22:51.319Z,20.30
2023-05-21T06:23:53.510Z,22.52
2023-05-21T06:24:55.307Z,19.85
2023-05-21T06:25:57.111Z,19.63
2023-05-21T06:26:58.992Z,19.17
2023-05-21T06:28:00.954Z,20.77
2023-05-21T06:29:03.886Z,20.20
2023-05-21T06:30:07.323Z,19.08
2023-05-21T06:31:09.095Z,19.38
2023-05-21T06:32:11.246Z,20.45
2023-05-21T06:33:13.092Z,20.42
2023-05-21T06:34:15.014Z,20.73
2023-05-21T06:35:16.780Z,20.55
2023-05-21T06:36:18.693Z,21.02
2023-05-21T06:37:21.876Z,19.35
2023-05-21T06:38:23.784Z,20.83
2023-05-21T06:39:27.161Z,18.77
2023-05-21T06:40:28.978Z,20.85
2023-05-21T06:41:31.004Z,18.88
2023-05-21T06:42:32.856Z,18.55
2023-05-21T06:43:34.876Z,18.45
2023-05-21T06:44:36.690Z,19.42
2023-05-21T06:45:38.806Z,17.90
2023-05-21T06:46:40.946Z,18.42
2023-05-21T06:47:42.856Z,18.42
2023-05-21T06:48:45.912Z,19.60
2023-05-21T06:49:47.764Z,18.15
2023-05-21T06:50:49.551Z,17.33
2023-05-21T06:51:51.331Z,18.33
2023-05-21T06:52:53.159Z,19.15
2023-05-21T06:53:55.116Z,18.45
2023-05-21T06:54:56.981Z,17.40
2023-05-21T06:55:58.865Z,20.40
2023-05-21T06:57:00.932Z,18.70
2023-05-21T06:58:02.769Z,17.42
2023-05-21T06:59:04.590Z,16.50
2023-05-21T07:00:09.205Z,17.40
2023-05-21T07:01:12.048Z,19.30
2023-05-21T07:02:13.922Z,17.90
2023-05-21T07:03:16.359Z,17.30
2023-05-21T07:04:18.385Z,19.77
2023-05-21T07:05:20.847Z,17.50
2023-05-21T07:06:22.685Z,17.05
2023-05-21T07:07:24.514Z,17.40
2023-05-21T07:08:26.435Z,17.60
2023-05-21T07:09:28.312Z,16.17
2023-05-21T07:10:30.156Z,17.52
2023-05-21T07:11:33.005Z,17.30
2023-05-21T07:12:34.813Z,15.95
2023-05-21T07:13:36.744Z,16.77
2023-05-21T07:14:38.515Z,17.27
2023-05-21T07:15:40.523Z,16.98
2023-05-21T07:16:42.449Z,16.35
2023-05-21T07:17:44.545Z,18.67
2023-05-21T07:18:46.892Z,17.02
2023-05-21T07:19:48.718Z,17.15
2023-05-21T07:20:50.617Z,17.45
2023-05-21T07:21:52.512Z,19.75
2023-05-21T07:22:54.318Z,16.52
2023-05-21T07:23:56.710Z,16.27
2023-05-21T07:24:58.729Z,15.95
2023-05-21T07:26:00.671Z,16.95
2023-05-21T07:27:11.350Z,16.17
2023-05-21T07:28:20.433Z,15.93
2023-05-21T07:29:22.231Z,16.42
2023-05-21T07:30:24.140Z,15.85
2023-05-21T07:31:26.096Z,15.90
2023-05-21T07:32:29.308Z,15.88
2023-05-21T07:33:31.387Z,17.55
2023-05-21T07:34:33.258Z,16.42
2023-05-21T07:35:35.303Z,16.65
2023-05-21T07:36:37.572Z,16.00
2023-05-21T07:37:39.575Z,16.00
2023-05-21T07:38:41.493Z,15.75
2023-05-21T07:39:43.309Z,16.33
2023-05-21T07:40:45.138Z,14.77
2023-05-21T07:41:47.267Z,16.00
2023-05-21T07:42:49.072Z,16.63
2023-05-21T07:43:50.844Z,16.98
2023-05-21T07:44:52.728Z,14.20
2023-05-21T07:45:54.519Z,14.52
2023-05-21T07:46:56.435Z,14.77
2023-05-21T07:47:58.416Z,14.63
2023-05-21T07:49:00.717Z,14.70
2023-05-21T07:50:02.558Z,14.55
2023-05-21T07:51:04.766Z,14.10
2023-05-21T07:52:06.882Z,14.70
2023-05-21T07:53:08.780Z,14.93
2023-05-21T07:54:11.205Z,16.42
2023-05-21T07:55:13.029Z,14.25
2023-05-21T07:56:14.960Z,13.70
2023-05-21T07:57:16.891Z,15.77
2023-05-21T07:58:19.672Z,15.23
2023-05-21T07:59:21.647Z,15.07
2023-05-21T08:00:24.353Z,15.45
2023-05-21T08:01:28.350Z,15.93
2023-05-21T08:02:30.206Z,14.23
2023-05-21T08:03:32.191Z,14.10
2023-05-21T08:04:34.108Z,13.25
2023-05-21T08:05:36.102Z,13.20
2023-05-21T08:06:38.131Z,13.30
2023-05-21T08:07:40.272Z,13.30
2023-05-21T08:08:42.086Z,14.38
2023-05-21T08:09:43.876Z,12.52
2023-05-21T08:10:46.471Z,11.90
2023-05-21T08:11:48.330Z,12.02
2023-05-21T08:12:50.086Z,12.63
2023-05-21T08:13:51.955Z,12.75
2023-05-21T08:14:53.787Z,14.25
2023-05-21T08:15:55.575Z,12.68
2023-05-21T08:16:57.417Z,13.07
2023-05-21T08:17:59.491Z,14.05
2023-05-21T08:19:01.383Z,14.02
2023-05-21T08:20:04.493Z,13.38
2023-05-21T08:21:06.429Z,13.45
2023-05-21T08:22:08.434Z,12.30
2023-05-21T08:23:10.199Z,13.38
2023-05-21T08:24:12.026Z,13.35
2023-05-21T08:25:13.959Z,15.05
2023-05-21T08:26:18.597Z,12.60
2023-05-21T08:27:21.324Z,13.57
2023-05-21T08:28:27.516Z,12.70
2023-05-21T08:29:29.326Z,13.85
2023-05-21T08:30:31.311Z,14.15
2023-05-21T08:31:33.097Z,13.55
2023-05-21T08:32:34.943Z,13.40
2023-05-21T08:33:39.642Z,13.57
2023-05-21T08:34:41.521Z,14.20
2023-05-21T08:35:43.373Z,14.10
2023-05-21T08:36:46.276Z,13.40
2023-05-21T08:37:48.094Z,13.25
2023-05-21T08:38:49.909Z,13.43
2023-05-21T08:39:51.699Z,12.95
2023-05-21T08:40:55.273Z,13.13
2023-05-21T08:42:09.696Z,14.77
2023-05-21T08:43:14.064Z,12.50
2023-05-21T08:44:21.741Z,13.95
2023-05-21T08:45:24.048Z,12.95
2023-05-21T08:46:27.399Z,13.85
2023-05-21T08:47:34.188Z,12.80
2023-05-21T08:48:38.858Z,11.57
2023-05-21T08:49:42.920Z,12.48
2023-05-21T08:50:46.376Z,14.93
2023-05-21T08:51:50.362Z,12.60
2023-05-21T08:52:52.668Z,12.70
2023-05-21T08:53:57.116Z,13.70
2023-05-21T08:55:00.003Z,13.15
2023-05-21T08:56:01.993Z,13.27
2023-05-21T08:57:04.678Z,12.30
2023-05-21T08:58:06.728Z,13.10
2023-05-21T08:59:08.765Z,12.32
2023-05-21T09:00:11.892Z,12.45
2023-05-21T09:01:14.213Z,12.13
2023-05-21T09:02:18.435Z,12.73
2023-05-21T09:03:22.569Z,13.32
2023-05-21T09:04:24.799Z,12.60
2023-05-21T09:05:27.869Z,13.52
2023-05-21T09:06:29.921Z,12.52
2023-05-21T09:07:37.430Z,12.05
2023-05-21T09:08:43.570Z,11.10
2023-05-21T09:09:54.325Z,12.27
2023-05-21T09:10:56.300Z,10.77
2023-05-21T09:11:58.142Z,13.02
2023-05-21T09:13:01.192Z,11.35
2023-05-21T09:14:04.086Z,11.63
2023-05-21T09:15:07.093Z,10.50
2023-05-21T09:16:10.693Z,10.88
2023-05-21T09:17:14.902Z,11.10
2023-05-21T09:18:16.858Z,10.30
2023-05-21T09:19:24.441Z,11.25
2023-05-21T09:20:27.822Z,11.52
2023-05-21T09:21:31.524Z,10.73
2023-05-21T09:22:33.688Z,10.48
2023-05-21T09:23:35.681Z,10.52
2023-05-21T09:24:37.594Z,10.10
2023-05-21T09:25:40.041Z,10.63
2023-05-21T09:26:45.144Z,9.82
2023-05-21T09:27:47.224Z,12.23
2023-05-21T09:28:49.076Z,10.20
2023-05-21T09:29:51.484Z,10.75
2023-05-21T09:30:56.166Z,9.90
2023-05-21T09:31:58.907Z,9.48
2023-05-21T09:33:01.761Z,9.57
2023-05-21T09:34:03.798Z,10.15
2023-05-21T09:35:08.318Z,11.60
2023-05-21T09:36:10.203Z,11.18
2023-05-21T09:37:23.685Z,9.90
2023-05-21T09:38:29.511Z,10.18
2023-05-21T09:39:31.454Z,10.95
2023-05-21T09:40:35.815Z,8.85
2023-05-21T09:41:38.417Z,9.90
2023-05-21T09:42:46.134Z,9.52
2023-05-21T09:43:48.025Z,9.65
2023-05-21T09:44:50.016Z,9.32
2023-05-21T09:45:58.344Z,9.55
2023-05-21T09:47:02.538Z,10.30
2023-05-21T09:48:04.608Z,10.02
2023-05-21T09:49:06.435Z,9.20
2023-05-21T09:50:12.855Z,9.23
2023-05-21T09:51:16.391Z,8.68
2023-05-21T09:52:29.148Z,8.93
2023-05-21T09:53:31.035Z,9.30
2023-05-21T09:54:34.569Z,9.18
2023-05-21T09:55:36.704Z,11.05
2023-05-21T09:56:40.161Z,9.25
2023-05-21T09:57:43.732Z,9.10
2023-05-21T09:58:46.100Z,8.82
2023-05-21T09:59:50.724Z,10.82
2023-05-21T10:00:53.217Z,8.80
2023-05-21T10:01:55.647Z,8.80
2023-05-21T10:03:02.000Z,9.23
2023-05-21T10:04:07.938Z,10.07
2023-05-21T10:05:11.839Z,8.75
2023-05-21T10:06:15.021Z,9.85
2023-05-21T10:07:26.649Z,8.75
2023-05-21T10:08:33.077Z,9.00
2023-05-21T10:09:34.953Z,9.88
2023-05-21T10:10:40.994Z,8.85
2023-05-21T10:11:45.108Z,8.63
2023-05-21T10:12:48.124Z,9.02
2023-05-21T10:13:55.767Z,8.77
2023-05-21T10:15:02.531Z,8.93
2023-05-21T10:16:05.367Z,8.73
2023-05-21T10:17:07.795Z,7.97
2023-05-21T10:18:12.339Z,9.10
2023-05-21T10:19:16.178Z,8.40
2023-05-21T10:20:18.419Z,8.75
2023-05-21T10:21:22.986Z,8.25
2023-05-21T10:22:25.610Z,11.02
2023-05-21T10:23:28.344Z,9.30
2023-05-21T10:24:31.173Z,8.52
2023-05-21T10:25:33.512Z,8.10
2023-05-21T10:26:36.295Z,8.18
2023-05-21T10:27:38.463Z,9.10
2023-05-21T10:28:40.629Z,8.43
2023-05-21T10:29:45.540Z,8.52
2023-05-21T10:30:47.669Z,8.32
2023-05-21T10:31:51.308Z,8.40
2023-05-21T10:32:55.689Z,8.30
2023-05-21T10:33:58.218Z,8.60
2023-05-21T10:35:02.410Z,10.70
2023-05-21T10:36:04.979Z,8.30
2023-05-21T10:37:09.933Z,8.15
2023-05-21T10:38:13.462Z,9.20
2023-05-21T10:39:17.155Z,12.43
2023-05-21T10:40:19.044Z,10.02
2023-05-21T10:41:22.068Z,10.05
2023-05-21T10:42:23.873Z,8.70
2023-05-21T10:43:44.117Z,8.68
2023-05-21T10:44:48.710Z,8.50
2023-05-21T10:46:21.156Z,8.27
2023-05-21T10:47:40.962Z,9.60
2023-05-21T10:49:18.614Z,9.40
2023-05-21T10:50:35.558Z,8.52
2023-05-21T10:51:55.266Z,9.07
2023-05-21T10:53:02.943Z,9.43
2023-05-21T10:54:26.725Z,9.00
2023-05-21T10:55:48.034Z,8.23
2023-05-21T10:57:04.940Z,8.57
2023-05-21T10:58:51.136Z,9.00
2023-05-21T10:59:53.261Z,8.15
2023-05-21T11:00:55.958Z,8.50
2023-05-21T11:01:58.182Z,8.68
2023-05-21T11:03:02.241Z,8.70
2023-05-21T11:04:06.183Z,7.80
2023-05-21T11:05:08.218Z,9.75
2023-05-21T11:06:11.688Z,8.52
2023-05-21T11:07:13.692Z,8.73
2023-05-21T11:08:33.739Z,9.00
2023-05-21T11:09:35.778Z,10.02
2023-05-21T11:10:41.330Z,9.00
2023-05-21T11:11:44.331Z,9.07
2023-05-21T11:13:06.085Z,8.23
2023-05-21T11:14:31.640Z,9.10
2023-05-21T11:15:59.741Z,8.85
2023-05-21T11:17:16.364Z,8.80
2023-05-21T11:18:18.339Z,8.80
2023-05-21T11:19:20.360Z,8.43
2023-05-21T11:20:23.274Z,8.77
2023-05-21T11:21:30.460Z,8.77
2023-05-21T11:22:35.650Z,8.32
2023-05-21T11:24:06.320Z,8.43
2023-05-21T11:25:08.577Z,8.25
2023-05-21T11:26:10.959Z,8.63
2023-05-21T11:27:13.166Z,8.23
2023-05-21T11:28:14.967Z,9.50
2023-05-21T11:29:19.635Z,9.00
2023-05-21T11:30:21.437Z,8.00
2023-05-21T11:31:27.362Z,8.70
2023-05-21T11:32:29.883Z,7.85
2023-05-21T11:33:33.437Z,8.60
2023-05-21T11:34:46.396Z,7.63
2023-05-21T11:35:48.164Z,8.63
2023-05-21T11:37:10.368Z,9.15
2023-05-21T11:38:12.277Z,8.45
2023-05-21T11:39:15.819Z,9.30
2023-05-21T11:40:18.778Z,9.23
2023-05-21T11:41:22.221Z,8.55
2023-05-21T11:42:35.235Z,8.50
2023-05-21T11:43:40.915Z,8.35
2023-05-21T11:44:48.025Z,7.78
2023-05-21T11:45:53.039Z,8.27
2023-05-21T11:46:55.265Z,9.18
2023-05-21T11:47:57.731Z,9.50
2023-05-21T11:49:00.738Z,7.93
2023-05-21T11:50:04.451Z,8.88
2023-05-21T11:51:07.635Z,8.00
2023-05-21T11:52:11.307Z,8.00
2023-05-21T11:53:13.396Z,7.65
2023-05-21T11:54:17.841Z,8.05
2023-05-21T11:55:24.979Z,8.63
2023-05-21T11:56:28.372Z,7.47
2023-05-21T11:57:33.331Z,7.53
2023-05-21T11:58:35.154Z,7.53
2023-05-21T11:59:37.479Z,7.43
2023-05-21T12:00:40.348Z,7.22
2023-05-21T12:01:43.682Z,8.07
2023-05-21T12:02:51.858Z,9.35
2023-05-21T12:03:53.704Z,7.53
2023-05-21T12:05:00.321Z,8.32
2023-05-21T12:06:06.760Z,8.60
2023-05-21T12:07:15.518Z,9.02
2023-05-21T12:08:28.861Z,7.63
2023-05-21T12:09:30.867Z,8.40
2023-05-21T12:10:32.941Z,7.00
2023-05-21T12:11:34.843Z,7.20
2023-05-21T12:12:49.886Z,7.65
2023-05-21T12:13:55.817Z,9.85
2023-05-21T12:14:58.966Z,6.57
2023-05-21T12:16:03.971Z,6.60
2023-05-21T12:17:07.833Z,9.57
2023-05-21T12:18:09.898Z,7.07
2023-05-21T12:19:15.056Z,6.07
2023-05-21T12:20:19.705Z,6.55
2023-05-21T12:21:21.832Z,7.30
2023-05-21T12:22:25.166Z,7.95
2023-05-21T12:23:26.996Z,7.20
2023-05-21T12:24:29.204Z,6.10
2023-05-21T12:25:32.119Z,5.95
2023-05-21T12:26:38.162Z,6.72
2023-05-21T12:27:42.139Z,8.57
2023-05-21T12:28:44.780Z,6.93
2023-05-21T12:29:50.588Z,6.32
2023-05-21T12:30:53.654Z,8.02
2023-05-21T12:32:00.430Z,6.78
2023-05-21T12:33:03.129Z,8.23
2023-05-21T12:34:05.245Z,7.22
2023-05-21T12:35:07.508Z,7.32
2023-05-21T12:36:09.376Z,6.53
2023-05-21T12:37:23.186Z,6.32
2023-05-21T12:38:30.031Z,6.13
2023-05-21T12:39:32.197Z,7.63
2023-05-21T12:40:38.669Z,7.32
2023-05-21T12:41:41.417Z,7.93
2023-05-21T12:42:44.603Z,6.38
2023-05-21T12:43:47.182Z,7.82
2023-05-21T12:44:49.217Z,5.72
2023-05-21T12:45:51.881Z,5.90
2023-05-21T12:46:53.822Z,8.18
2023-05-21T12:50:12.450Z,5.60
2023-05-21T12:51:14.320Z,6.53
2023-05-21T12:52:19.320Z,7.32
2023-05-21T12:53:21.280Z,6.47
2023-05-21T12:54:30.880Z,5.75
2023-05-21T12:55:33.037Z,7.13
2023-05-21T12:56:45.550Z,6.18
2023-05-21T12:57:47.491Z,6.18
2023-05-21T12:58:51.013Z,6.50
2023-05-21T13:00:00.949Z,5.75
2023-05-21T13:01:05.164Z,6.15
2023-05-21T13:02:07.403Z,6.55
2023-05-21T13:03:09.308Z,7.07
2023-05-21T13:04:15.761Z,7.07
2023-05-21T13:05:19.351Z,6.20
2023-05-21T13:06:23.007Z,6.47
2023-05-21T13:07:30.300Z,6.03
2023-05-21T13:08:34.906Z,6.03
2023-05-21T13:09:36.777Z,6.15
2023-05-21T13:10:38.846Z,7.93
2023-05-21T13:11:40.979Z,6.20
2023-05-21T13:12:44.339Z,6.20
2023-05-21T13:13:46.526Z,5.68
2023-05-21T13:14:52.570Z,5.50
2023-05-21T13:15:55.356Z,6.03
2023-05-21T13:16:58.024Z,6.03
2023-05-21T13:18:01.476Z,6.10
2023-05-21T13:19:03.578Z,6.32
2023-05-21T13:20:26.318Z,5.95
2023-05-21T13:21:28.320Z,7.05
2023-05-21T13:22:30.134Z,5.45
2023-05-21T13:23:32.192Z,6.07
2023-05-21T13:24:34.428Z,6.82
2023-05-21T13:25:36.571Z,6.30
2023-05-21T13:26:38.390Z,5.72
2023-05-21T13:27:46.714Z,5.60
2023-05-21T13:28:50.358Z,6.05
2023-05-21T13:29:54.079Z,7.38
2023-05-21T13:30:59.013Z,6.15
2023-05-21T13:32:03.384Z,5.93
2023-05-21T13:33:06.602Z,6.05
2023-05-21T13:34:08.685Z,5.95
2023-05-21T13:35:12.307Z,6.13
2023-05-21T13:36:14.434Z,5.47
2023-05-21T13:37:16.286Z,6.10
2023-05-21T13:38:18.387Z,5.88
2023-05-21T13:39:26.713Z,6.43
2023-05-21T13:40:28.580Z,5.80
2023-05-21T13:41:30.720Z,6.05
2023-05-21T13:42:33.398Z,6.20
2023-05-21T13:43:35.269Z,6.80
2023-05-21T13:44:37.916Z,6.07
2023-05-21T13:45:39.883Z,6.22
2023-05-21T13:46:41.811Z,6.80
2023-05-21T13:47:45.336Z,5.90
2023-05-21T13:48:47.225Z,5.80
2023-05-21T13:49:49.133Z,5.93